sensor_id;sensor_type;location;lat;lon;timestamp;P1;durP1;ratioP1;P2;durP2;ratioP2
18239;SDS011;9244;50.828;4.718;2023-06-22T00:00:42;5.22;;;3.75;;
18239;SDS011;9244;50.828;4.718;2023-06-22T00:03:09;3.97;;;3.55;;
18239;SDS011;9244;50.828;4.718;2023-06-22T00:05:35;4.15;;;3.75;;
18239;SDS011;9244;50.828;4.718;2023-06-22T00:08:03;3.92;;;3.17;;
18239;SDS011;9244;50.828;4.718;2023-06-22T00:10:30;3.67;;;3.42;;
18239;SDS011;9244;50.828;4.718;2023-06-22T00:12:55;4.30;;;3.35;;
18239;SDS011;9244;50.828;4.718;2023-06-22T00:15:21;4.57;;;3.50;;
18239;SDS011;9244;50.828;4.718;2023-06-22T00:17:47;5.22;;;3.17;;
18239;SDS011;9244;50.828;4.718;2023-06-22T00:20:14;4.00;;;3.60;;
18239;SDS011;9244;50.828;4.718;2023-06-22T00:22:41;4.25;;;3.35;;
18239;SDS011;9244;50.828;4.718;2023-06-22T00:25:08;5.57;;;4.13;;
18239;SDS011;9244;50.828;4.718;2023-06-22T00:27:34;4.50;;;4.10;;
18239;SDS011;9244;50.828;4.718;2023-06-22T00:30:00;4.25;;;3.33;;
18239;SDS011;9244;50.828;4.718;2023-06-22T00:32:26;4.45;;;4.05;;
18239;SDS011;9244;50.828;4.718;2023-06-22T00:34:51;4.55;;;4.15;;
18239;SDS011;9244;50.828;4.718;2023-06-22T00:37:17;5.10;;;4.30;;
18239;SDS011;9244;50.828;4.718;2023-06-22T00:39:43;4.25;;;3.92;;
18239;SDS011;9244;50.828;4.718;2023-06-22T00:42:09;7.13;;;4.72;;
18239;SDS011;9244;50.828;4.718;2023-06-22T00:44:35;5.60;;;4.78;;
18239;SDS011;9244;50.828;4.718;2023-06-22T00:47:01;5.57;;;4.63;;
18239;SDS011;9244;50.828;4.718;2023-06-22T00:49:27;4.85;;;4.45;;
18239;SDS011;9244;50.828;4.718;2023-06-22T00:51:53;4.57;;;4.18;;
18239;SDS011;9244;50.828;4.718;2023-06-22T00:54:19;4.10;;;3.80;;
18239;SDS011;9244;50.828;4.718;2023-06-22T00:56:50;4.30;;;3.90;;
18239;SDS011;9244;50.828;4.718;2023-06-22T00:59:22;4.22;;;3.83;;
18239;SDS011;9244;50.828;4.718;2023-06-22T01:01:49;4.32;;;3.90;;
18239;SDS011;9244;50.828;4.718;2023-06-22T01:04:15;4.68;;;4.20;;
18239;SDS011;9244;50.828;4.718;2023-06-22T01:09:49;4.80;;;4.40;;
18239;SDS011;9244;50.828;4.718;2023-06-22T01:12:30;4.60;;;4.20;;
18239;SDS011;9244;50.828;4.718;2023-06-22T01:15:18;5.03;;;4.03;;
18239;SDS011;9244;50.828;4.718;2023-06-22T01:17:53;4.57;;;4.15;;
18239;SDS011;9244;50.828;4.718;2023-06-22T01:20:21;5.22;;;4.45;;
18239;SDS011;9244;50.828;4.718;2023-06-22T01:22:55;4.82;;;4.00;;
18239;SDS011;9244;50.828;4.718;2023-06-22T01:25:53;4.70;;;3.63;;
18239;SDS011;9244;50.828;4.718;2023-06-22T01:28:48;4.75;;;4.35;;
18239;SDS011;9244;50.828;4.718;2023-06-22T01:31:17;6.50;;;4.82;;
18239;SDS011;9244;50.828;4.718;2023-06-22T01:33:45;5.97;;;5.40;;
18239;SDS011;9244;50.828;4.718;2023-06-22T01:36:15;5.45;;;4.93;;
18239;SDS011;9244;50.828;4.718;2023-06-22T01:38:42;5.50;;;5.07;;
18239;SDS011;9244;50.828;4.718;2023-06-22T01:41:10;5.47;;;5.07;;
18239;SDS011;9244;50.828;4.718;2023-06-22T01:43:37;6.00;;;5.03;;
18239;SDS011;9244;50.828;4.718;2023-06-22T01:46:03;5.20;;;4.70;;
18239;SDS011;9244;50.828;4.718;2023-06-22T01:48:30;6.63;;;5.18;;
18239;SDS011;9244;50.828;4.718;2023-06-22T01:50:56;6.25;;;5.22;;
18239;SDS011;9244;50.828;4.718;2023-06-22T01:53:22;5.57;;;5.15;;
18239;SDS011;9244;50.828;4.718;2023-06-22T01:55:48;5.22;;;4.70;;
18239;SDS011;9244;50.828;4.718;2023-06-22T01:58:14;5.13;;;4.70;;
18239;SDS011;9244;50.828;4.718;2023-06-22T02:00:42;5.25;;;4.75;;
18239;SDS011;9244;50.828;4.718;2023-06-22T02:03:14;4.95;;;4.45;;
18239;SDS011;9244;50.828;4.718;2023-06-22T02:05:49;6.65;;;4.78;;
18239;SDS011;9244;50.828;4.718;2023-06-22T02:08:23;5.50;;;4.65;;
18239;SDS011;9244;50.828;4.718;2023-06-22T02:10:53;4.88;;;4.47;;
18239;SDS011;9244;50.828;4.718;2023-06-22T02:13:20;4.88;;;4.47;;
18239;SDS011;9244;50.828;4.718;2023-06-22T02:15:46;4.82;;;4.43;;
18239;SDS011;9244;50.828;4.718;2023-06-22T02:18:12;4.50;;;4.07;;
18239;SDS011;9244;50.828;4.718;2023-06-22T02:20:39;6.05;;;4.57;;
18239;SDS011;9244;50.828;4.718;2023-06-22T02:23:05;6.70;;;4.90;;
18239;SDS011;9244;50.828;4.718;2023-06-22T02:25:32;5.30;;;4.80;;
18239;SDS011;9244;50.828;4.718;2023-06-22T02:27:58;6.90;;;6.20;;
18239;SDS011;9244;50.828;4.718;2023-06-22T02:30:24;7.35;;;6.50;;
18239;SDS011;9244;50.828;4.718;2023-06-22T02:32:49;6.20;;;5.43;;
18239;SDS011;9244;50.828;4.718;2023-06-22T02:35:27;6.35;;;5.72;;
18239;SDS011;9244;50.828;4.718;2023-06-22T02:37:59;6.57;;;5.88;;
18239;SDS011;9244;50.828;4.718;2023-06-22T02:40:27;5.85;;;5.28;;
18239;SDS011;9244;50.828;4.718;2023-06-22T02:42:53;5.65;;;5.15;;
18239;SDS011;9244;50.828;4.718;2023-06-22T02:45:19;5.78;;;5.10;;
18239;SDS011;9244;50.828;4.718;2023-06-22T02:47:44;5.55;;;5.13;;
18239;SDS011;9244;50.828;4.718;2023-06-22T02:50:10;4.95;;;4.40;;
18239;SDS011;9244;50.828;4.718;2023-06-22T02:52:36;6.40;;;5.13;;
18239;SDS011;9244;50.828;4.718;2023-06-22T02:55:01;5.60;;;5.10;;
18239;SDS011;9244;50.828;4.718;2023-06-22T02:57:27;5.70;;;5.10;;
18239;SDS011;9244;50.828;4.718;2023-06-22T02:59:53;5.45;;;4.95;;
18239;SDS011;9244;50.828;4.718;2023-06-22T03:02:20;5.60;;;4.93;;
18239;SDS011;9244;50.828;4.718;2023-06-22T03:04:46;5.15;;;4.75;;
18239;SDS011;9244;50.828;4.718;2023-06-22T03:07:14;5.47;;;4.97;;
18239;SDS011;9244;50.828;4.718;2023-06-22T03:09:40;5.03;;;4.63;;
18239;SDS011;9244;50.828;4.718;2023-06-22T03:12:08;7.80;;;5.65;;
18239;SDS011;9244;50.828;4.718;2023-06-22T03:14:33;6.45;;;5.90;;
18239;SDS011;9244;50.828;4.718;2023-06-22T03:16:59;5.88;;;5.32;;
18239;SDS011;9244;50.828;4.718;2023-06-22T03:19:28;6.38;;;5.28;;
18239;SDS011;9244;50.828;4.718;2023-06-22T03:21:56;6.18;;;5.57;;
18239;SDS011;9244;50.828;4.718;2023-06-22T03:24:22;5.43;;;5.00;;
18239;SDS011;9244;50.828;4.718;2023-06-22T03:26:48;5.55;;;5.10;;
18239;SDS011;9244;50.828;4.718;2023-06-22T03:29:13;5.97;;;5.38;;
18239;SDS011;9244;50.828;4.718;2023-06-22T03:31:39;6.45;;;5.95;;
18239;SDS011;9244;50.828;4.718;2023-06-22T03:34:05;7.25;;;5.22;;
18239;SDS011;9244;50.828;4.718;2023-06-22T03:36:30;7.45;;;6.75;;
18239;SDS011;9244;50.828;4.718;2023-06-22T03:38:56;6.13;;;5.53;;
18239;SDS011;9244;50.828;4.718;2023-06-22T03:41:22;7.05;;;5.80;;
18239;SDS011;9244;50.828;4.718;2023-06-22T03:43:47;7.22;;;6.53;;
18239;SDS011;9244;50.828;4.718;2023-06-22T03:46:13;7.78;;;6.93;;
18239;SDS011;9244;50.828;4.718;2023-06-22T03:48:38;7.30;;;5.93;;
18239;SDS011;9244;50.828;4.718;2023-06-22T03:51:04;7.75;;;6.97;;
18239;SDS011;9244;50.828;4.718;2023-06-22T03:53:30;7.63;;;7.03;;
18239;SDS011;9244;50.828;4.718;2023-06-22T03:55:55;7.43;;;6.82;;
18239;SDS011;9244;50.828;4.718;2023-06-22T03:58:21;8.45;;;7.38;;
18239;SDS011;9244;50.828;4.718;2023-06-22T04:00:47;7.93;;;7.13;;
18239;SDS011;9244;50.828;4.718;2023-06-22T04:03:14;7.97;;;7.15;;
18239;SDS011;9244;50.828;4.718;2023-06-22T04:05:40;6.95;;;6.25;;
18239;SDS011;9244;50.828;4.718;2023-06-22T04:08:06;7.53;;;6.82;;
18239;SDS011;9244;50.828;4.718;2023-06-22T04:10:32;8.25;;;7.45;;
18239;SDS011;9244;50.828;4.718;2023-06-22T04:12:58;8.52;;;7.05;;
18239;SDS011;9244;50.828;4.718;2023-06-22T04:15:24;6.72;;;6.22;;
18239;SDS011;9244;50.828;4.718;2023-06-22T04:17:50;6.82;;;6.22;;
18239;SDS011;9244;50.828;4.718;2023-06-22T04:20:15;7.10;;;6.40;;
18239;SDS011;9244;50.828;4.718;2023-06-22T04:22:41;7.20;;;6.60;;
18239;SDS011;9244;50.828;4.718;2023-06-22T04:25:07;7.68;;;6.97;;
18239;SDS011;9244;50.828;4.718;2023-06-22T04:27:33;9.20;;;7.20;;
18239;SDS011;9244;50.828;4.718;2023-06-22T04:30:02;7.53;;;6.78;;
18239;SDS011;9244;50.828;4.718;2023-06-22T04:32:29;13.25;;;7.40;;
18239;SDS011;9244;50.828;4.718;2023-06-22T04:34:54;8.60;;;7.72;;
18239;SDS011;9244;50.828;4.718;2023-06-22T04:37:20;7.63;;;6.93;;
18239;SDS011;9244;50.828;4.718;2023-06-22T04:39:48;8.30;;;7.35;;
18239;SDS011;9244;50.828;4.718;2023-06-22T04:42:14;8.50;;;7.70;;
18239;SDS011;9244;50.828;4.718;2023-06-22T04:44:40;9.25;;;7.78;;
18239;SDS011;9244;50.828;4.718;2023-06-22T04:47:07;9.48;;;8.57;;
18239;SDS011;9244;50.828;4.718;2023-06-22T04:49:36;8.70;;;7.90;;
18239;SDS011;9244;50.828;4.718;2023-06-22T04:52:06;9.65;;;8.25;;
18239;SDS011;9244;50.828;4.718;2023-06-22T04:54:33;9.20;;;8.30;;
18239;SDS011;9244;50.828;4.718;2023-06-22T04:57:01;9.82;;;9.02;;
18239;SDS011;9244;50.828;4.718;2023-06-22T04:59:34;9.30;;;8.40;;
18239;SDS011;9244;50.828;4.718;2023-06-22T05:02:01;11.32;;;8.85;;
18239;SDS011;9244;50.828;4.718;2023-06-22T05:04:28;9.43;;;8.40;;
18239;SDS011;9244;50.828;4.718;2023-06-22T05:06:58;9.50;;;8.63;;
18239;SDS011;9244;50.828;4.718;2023-06-22T05:09:27;8.85;;;8.07;;
18239;SDS011;9244;50.828;4.718;2023-06-22T05:11:54;9.85;;;8.85;;
18239;SDS011;9244;50.828;4.718;2023-06-22T05:14:21;8.50;;;7.80;;
18239;SDS011;9244;50.828;4.718;2023-06-22T05:16:48;8.82;;;7.93;;
18239;SDS011;9244;50.828;4.718;2023-06-22T05:19:14;8.02;;;7.25;;
18239;SDS011;9244;50.828;4.718;2023-06-22T05:21:40;10.57;;;7.75;;
18239;SDS011;9244;50.828;4.718;2023-06-22T05:24:05;8.45;;;7.68;;
18239;SDS011;9244;50.828;4.718;2023-06-22T05:26:32;8.38;;;7.57;;
18239;SDS011;9244;50.828;4.718;2023-06-22T05:28:59;10.05;;;8.27;;
18239;SDS011;9244;50.828;4.718;2023-06-22T05:31:26;9.57;;;8.73;;
18239;SDS011;9244;50.828;4.718;2023-06-22T05:33:52;9.60;;;8.80;;
18239;SDS011;9244;50.828;4.718;2023-06-22T05:36:19;12.00;;;9.15;;
18239;SDS011;9244;50.828;4.718;2023-06-22T05:38:46;11.60;;;10.35;;
18239;SDS011;9244;50.828;4.718;2023-06-22T05:41:12;10.15;;;9.20;;
18239;SDS011;9244;50.828;4.718;2023-06-22T05:43:37;10.50;;;9.60;;
18239;SDS011;9244;50.828;4.718;2023-06-22T05:46:03;11.05;;;10.05;;
18239;SDS011;9244;50.828;4.718;2023-06-22T05:48:29;11.13;;;10.10;;
18239;SDS011;9244;50.828;4.718;2023-06-22T05:50:55;11.93;;;10.85;;
18239;SDS011;9244;50.828;4.718;2023-06-22T05:53:21;11.90;;;10.77;;
18239;SDS011;9244;50.828;4.718;2023-06-22T05:55:47;11.13;;;10.13;;
18239;SDS011;9244;50.828;4.718;2023-06-22T05:58:12;12.68;;;11.55;;
18239;SDS011;9244;50.828;4.718;2023-06-22T06:00:38;12.25;;;11.15;;
18239;SDS011;9244;50.828;4.718;2023-06-22T06:03:04;12.57;;;11.50;;
18239;SDS011;9244;50.828;4.718;2023-06-22T06:05:32;12.38;;;11.20;;
18239;SDS011;9244;50.828;4.718;2023-06-22T06:07:59;12.00;;;10.93;;
18239;SDS011;9244;50.828;4.718;2023-06-22T06:10:26;12.55;;;11.35;;
18239;SDS011;9244;50.828;4.718;2023-06-22T06:12:52;13.02;;;11.82;;
18239;SDS011;9244;50.828;4.718;2023-06-22T06:15:18;12.20;;;11.07;;
18239;SDS011;9244;50.828;4.718;2023-06-22T06:17:47;16.90;;;12.25;;
18239;SDS011;9244;50.828;4.718;2023-06-22T06:20:14;12.18;;;10.95;;
18239;SDS011;9244;50.828;4.718;2023-06-22T06:22:40;13.77;;;12.45;;
18239;SDS011;9244;50.828;4.718;2023-06-22T06:25:07;14.18;;;12.85;;
18239;SDS011;9244;50.828;4.718;2023-06-22T06:27:33;13.32;;;12.15;;
18239;SDS011;9244;50.828;4.718;2023-06-22T06:29:59;13.65;;;12.27;;
18239;SDS011;9244;50.828;4.718;2023-06-22T06:32:25;13.93;;;12.65;;
18239;SDS011;9244;50.828;4.718;2023-06-22T06:34:50;13.82;;;12.50;;
18239;SDS011;9244;50.828;4.718;2023-06-22T06:37:16;12.95;;;11.60;;
18239;SDS011;9244;50.828;4.718;2023-06-22T06:39:43;13.90;;;12.55;;
18239;SDS011;9244;50.828;4.718;2023-06-22T06:42:09;12.80;;;11.55;;
18239;SDS011;9244;50.828;4.718;2023-06-22T06:44:36;13.48;;;12.10;;
18239;SDS011;9244;50.828;4.718;2023-06-22T06:47:02;12.90;;;11.50;;
18239;SDS011;9244;50.828;4.718;2023-06-22T06:49:29;14.65;;;13.18;;
18239;SDS011;9244;50.828;4.718;2023-06-22T06:51:55;13.00;;;11.70;;
18239;SDS011;9244;50.828;4.718;2023-06-22T06:54:21;13.82;;;12.43;;
18239;SDS011;9244;50.828;4.718;2023-06-22T06:56:46;12.93;;;11.65;;
18239;SDS011;9244;50.828;4.718;2023-06-22T06:59:13;12.93;;;11.73;;
18239;SDS011;9244;50.828;4.718;2023-06-22T07:01:40;14.52;;;13.05;;
18239;SDS011;9244;50.828;4.718;2023-06-22T07:04:06;13.90;;;12.70;;
18239;SDS011;9244;50.828;4.718;2023-06-22T07:06:32;13.82;;;12.48;;
18239;SDS011;9244;50.828;4.718;2023-06-22T07:08:58;14.75;;;13.25;;
18239;SDS011;9244;50.828;4.718;2023-06-22T07:11:24;13.98;;;12.68;;
18239;SDS011;9244;50.828;4.718;2023-06-22T07:13:50;15.88;;;12.93;;
18239;SDS011;9244;50.828;4.718;2023-06-22T07:16:16;14.93;;;13.40;;
18239;SDS011;9244;50.828;4.718;2023-06-22T07:18:42;14.48;;;12.57;;
18239;SDS011;9244;50.828;4.718;2023-06-22T07:21:07;14.13;;;12.63;;
18239;SDS011;9244;50.828;4.718;2023-06-22T07:23:33;12.88;;;11.57;;
18239;SDS011;9244;50.828;4.718;2023-06-22T07:25:59;16.05;;;11.43;;
18239;SDS011;9244;50.828;4.718;2023-06-22T07:28:28;13.05;;;10.27;;
18239;SDS011;9244;50.828;4.718;2023-06-22T07:30:56;10.95;;;9.48;;
18239;SDS011;9244;50.828;4.718;2023-06-22T07:33:22;9.60;;;8.80;;
18239;SDS011;9244;50.828;4.718;2023-06-22T07:35:47;11.93;;;8.15;;
18239;SDS011;9244;50.828;4.718;2023-06-22T07:38:14;8.82;;;7.93;;
18239;SDS011;9244;50.828;4.718;2023-06-22T07:40:40;8.43;;;7.50;;
18239;SDS011;9244;50.828;4.718;2023-06-22T07:43:06;8.02;;;7.22;;
18239;SDS011;9244;50.828;4.718;2023-06-22T07:45:32;7.90;;;7.18;;
18239;SDS011;9244;50.828;4.718;2023-06-22T07:48:00;7.60;;;6.85;;
18239;SDS011;9244;50.828;4.718;2023-06-22T07:50:26;7.38;;;6.60;;
18239;SDS011;9244;50.828;4.718;2023-06-22T07:52:51;7.07;;;5.85;;
18239;SDS011;9244;50.828;4.718;2023-06-22T07:55:18;96.53;;;66.18;;
18239;SDS011;9244;50.828;4.718;2023-06-22T07:57:43;11.40;;;9.57;;
18239;SDS011;9244;50.828;4.718;2023-06-22T08:00:09;8.85;;;7.20;;
18239;SDS011;9244;50.828;4.718;2023-06-22T08:02:39;8.13;;;7.30;;
18239;SDS011;9244;50.828;4.718;2023-06-22T08:05:06;12.55;;;11.35;;
18239;SDS011;9244;50.828;4.718;2023-06-22T08:07:33;7.88;;;7.18;;
18239;SDS011;9244;50.828;4.718;2023-06-22T08:10:02;8.23;;;7.53;;
18239;SDS011;9244;50.828;4.718;2023-06-22T08:12:27;7.30;;;6.60;;
18239;SDS011;9244;50.828;4.718;2023-06-22T08:14:53;10.20;;;9.20;;
18239;SDS011;9244;50.828;4.718;2023-06-22T08:17:18;8.65;;;7.63;;
18239;SDS011;9244;50.828;4.718;2023-06-22T08:19:44;8.95;;;8.15;;
18239;SDS011;9244;50.828;4.718;2023-06-22T08:22:10;8.73;;;7.97;;
18239;SDS011;9244;50.828;4.718;2023-06-22T08:24:35;7.97;;;7.10;;
18239;SDS011;9244;50.828;4.718;2023-06-22T08:27:01;6.72;;;6.13;;
18239;SDS011;9244;50.828;4.718;2023-06-22T08:29:26;6.75;;;5.93;;
18239;SDS011;9244;50.828;4.718;2023-06-22T08:31:52;6.47;;;5.95;;
18239;SDS011;9244;50.828;4.718;2023-06-22T08:34:18;10.68;;;7.47;;
18239;SDS011;9244;50.828;4.718;2023-06-22T08:36:47;8.38;;;6.80;;
18239;SDS011;9244;50.828;4.718;2023-06-22T08:39:17;7.18;;;6.68;;
18239;SDS011;9244;50.828;4.718;2023-06-22T08:41:44;8.25;;;6.85;;
18239;SDS011;9244;50.828;4.718;2023-06-22T08:44:11;7.40;;;6.43;;
18239;SDS011;9244;50.828;4.718;2023-06-22T08:46:36;11.05;;;9.93;;
18239;SDS011;9244;50.828;4.718;2023-06-22T08:49:03;14.63;;;13.20;;
18239;SDS011;9244;50.828;4.718;2023-06-22T08:51:29;9.70;;;8.75;;
18239;SDS011;9244;50.828;4.718;2023-06-22T08:53:55;7.18;;;6.47;;
18239;SDS011;9244;50.828;4.718;2023-06-22T08:56:20;7.40;;;6.70;;
18239;SDS011;9244;50.828;4.718;2023-06-22T08:58:46;6.95;;;6.35;;
18239;SDS011;9244;50.828;4.718;2023-06-22T09:01:12;8.25;;;6.25;;
18239;SDS011;9244;50.828;4.718;2023-06-22T09:03:37;6.55;;;5.88;;
18239;SDS011;9244;50.828;4.718;2023-06-22T09:06:03;7.43;;;6.72;;
18239;SDS011;9244;50.828;4.718;2023-06-22T09:08:28;7.30;;;6.43;;
18239;SDS011;9244;50.828;4.718;2023-06-22T09:10:54;7.55;;;6.82;;
18239;SDS011;9244;50.828;4.718;2023-06-22T09:13:20;8.02;;;6.85;;
18239;SDS011;9244;50.828;4.718;2023-06-22T09:15:47;11.40;;;10.27;;
18239;SDS011;9244;50.828;4.718;2023-06-22T09:18:13;8.43;;;7.57;;
18239;SDS011;9244;50.828;4.718;2023-06-22T09:20:39;8.27;;;7.57;;
18239;SDS011;9244;50.828;4.718;2023-06-22T09:23:04;8.35;;;7.43;;
18239;SDS011;9244;50.828;4.718;2023-06-22T09:25:30;15.70;;;14.20;;
18239;SDS011;9244;50.828;4.718;2023-06-22T09:27:56;14.75;;;13.27;;
18239;SDS011;9244;50.828;4.718;2023-06-22T09:30:22;10.65;;;9.55;;
18239;SDS011;9244;50.828;4.718;2023-06-22T09:32:47;10.63;;;8.85;;
18239;SDS011;9244;50.828;4.718;2023-06-22T09:35:13;14.25;;;10.00;;
18239;SDS011;9244;50.828;4.718;2023-06-22T09:37:39;11.30;;;10.18;;
18239;SDS011;9244;50.828;4.718;2023-06-22T09:40:06;14.88;;;12.82;;
18239;SDS011;9244;50.828;4.718;2023-06-22T09:42:36;23.45;;;21.15;;
18239;SDS011;9244;50.828;4.718;2023-06-22T09:45:01;18.95;;;17.02;;
18239;SDS011;9244;50.828;4.718;2023-06-22T09:47:29;30.85;;;28.13;;
18239;SDS011;9244;50.828;4.718;2023-06-22T09:49:55;31.08;;;27.80;;
18239;SDS011;9244;50.828;4.718;2023-06-22T09:52:20;26.63;;;24.05;;
18239;SDS011;9244;50.828;4.718;2023-06-22T09:54:47;19.83;;;17.83;;
18239;SDS011;9244;50.828;4.718;2023-06-22T09:57:12;18.95;;;16.95;;
18239;SDS011;9244;50.828;4.718;2023-06-22T09:59:38;17.98;;;16.35;;
18239;SDS011;9244;50.828;4.718;2023-06-22T10:02:07;18.08;;;16.33;;
18239;SDS011;9244;50.828;4.718;2023-06-22T10:04:33;19.30;;;17.50;;
18239;SDS011;9244;50.828;4.718;2023-06-22T10:07:00;19.25;;;17.30;;
18239;SDS011;9244;50.828;4.718;2023-06-22T10:09:26;22.83;;;17.33;;
18239;SDS011;9244;50.828;4.718;2023-06-22T10:11:52;20.58;;;18.65;;
18239;SDS011;9244;50.828;4.718;2023-06-22T10:14:17;19.02;;;17.17;;
18239;SDS011;9244;50.828;4.718;2023-06-22T10:16:43;18.00;;;16.23;;
18239;SDS011;9244;50.828;4.718;2023-06-22T10:19:09;19.42;;;17.63;;
18239;SDS011;9244;50.828;4.718;2023-06-22T10:21:34;18.20;;;16.52;;
18239;SDS011;9244;50.828;4.718;2023-06-22T10:24:01;19.45;;;17.85;;
18239;SDS011;9244;50.828;4.718;2023-06-22T10:26:31;20.67;;;18.63;;
18239;SDS011;9244;50.828;4.718;2023-06-22T10:28:57;21.75;;;19.75;;
18239;SDS011;9244;50.828;4.718;2023-06-22T10:31:23;22.70;;;20.60;;
18239;SDS011;9244;50.828;4.718;2023-06-22T10:33:49;23.42;;;21.30;;
18239;SDS011;9244;50.828;4.718;2023-06-22T10:36:15;23.75;;;21.45;;
18239;SDS011;9244;50.828;4.718;2023-06-22T10:38:40;24.05;;;21.45;;
18239;SDS011;9244;50.828;4.718;2023-06-22T10:41:06;25.13;;;22.83;;
18239;SDS011;9244;50.828;4.718;2023-06-22T10:43:32;25.48;;;23.20;;
18239;SDS011;9244;50.828;4.718;2023-06-22T10:45:57;29.50;;;26.58;;
18239;SDS011;9244;50.828;4.718;2023-06-22T10:48:23;33.33;;;30.17;;
18239;SDS011;9244;50.828;4.718;2023-06-22T10:50:49;34.38;;;30.95;;
18239;SDS011;9244;50.828;4.718;2023-06-22T10:53:14;34.42;;;30.70;;
18239;SDS011;9244;50.828;4.718;2023-06-22T10:55:40;36.85;;;32.97;;
18239;SDS011;9244;50.828;4.718;2023-06-22T10:58:05;35.28;;;31.60;;
18239;SDS011;9244;50.828;4.718;2023-06-22T11:00:31;34.72;;;31.52;;
18239;SDS011;9244;50.828;4.718;2023-06-22T11:02:57;34.58;;;31.05;;
18239;SDS011;9244;50.828;4.718;2023-06-22T11:05:23;35.25;;;31.65;;
18239;SDS011;9244;50.828;4.718;2023-06-22T11:07:49;33.03;;;30.02;;
18239;SDS011;9244;50.828;4.718;2023-06-22T11:10:15;34.83;;;31.25;;
18239;SDS011;9244;50.828;4.718;2023-06-22T11:12:41;33.05;;;29.95;;
18239;SDS011;9244;50.828;4.718;2023-06-22T11:15:07;34.47;;;30.98;;
18239;SDS011;9244;50.828;4.718;2023-06-22T11:17:34;32.58;;;29.35;;
18239;SDS011;9244;50.828;4.718;2023-06-22T11:19:59;32.92;;;29.60;;
18239;SDS011;9244;50.828;4.718;2023-06-22T11:22:25;32.95;;;30.05;;
18239;SDS011;9244;50.828;4.718;2023-06-22T11:24:51;33.40;;;30.13;;
18239;SDS011;9244;50.828;4.718;2023-06-22T11:27:17;35.63;;;32.22;;
18239;SDS011;9244;50.828;4.718;2023-06-22T11:29:43;35.00;;;31.80;;
18239;SDS011;9244;50.828;4.718;2023-06-22T11:32:08;34.38;;;31.08;;
18239;SDS011;9244;50.828;4.718;2023-06-22T11:34:34;37.08;;;33.47;;
18239;SDS011;9244;50.828;4.718;2023-06-22T11:37:00;34.63;;;31.38;;
18239;SDS011;9244;50.828;4.718;2023-06-22T11:39:26;34.08;;;30.67;;
18239;SDS011;9244;50.828;4.718;2023-06-22T11:41:51;36.55;;;33.15;;
18239;SDS011;9244;50.828;4.718;2023-06-22T11:44:17;34.58;;;31.33;;
18239;SDS011;9244;50.828;4.718;2023-06-22T11:46:43;37.17;;;33.67;;
18239;SDS011;9244;50.828;4.718;2023-06-22T11:49:09;36.35;;;32.85;;
18239;SDS011;9244;50.828;4.718;2023-06-22T11:51:34;39.30;;;35.35;;
18239;SDS011;9244;50.828;4.718;2023-06-22T11:54:00;38.80;;;35.28;;
18239;SDS011;9244;50.828;4.718;2023-06-22T11:56:27;38.25;;;34.65;;
18239;SDS011;9244;50.828;4.718;2023-06-22T11:58:53;40.58;;;36.85;;
18239;SDS011;9244;50.828;4.718;2023-06-22T12:01:19;39.55;;;35.60;;
18239;SDS011;9244;50.828;4.718;2023-06-22T12:03:44;41.17;;;37.05;;
18239;SDS011;9244;50.828;4.718;2023-06-22T12:06:10;43.10;;;38.80;;
18239;SDS011;9244;50.828;4.718;2023-06-22T12:08:36;40.67;;;37.08;;
18239;SDS011;9244;50.828;4.718;2023-06-22T12:11:02;42.22;;;37.88;;
18239;SDS011;9244;50.828;4.718;2023-06-22T12:13:28;42.40;;;38.17;;
18239;SDS011;9244;50.828;4.718;2023-06-22T12:15:53;40.97;;;37.03;;
18239;SDS011;9244;50.828;4.718;2023-06-22T12:18:19;43.75;;;39.47;;
18239;SDS011;9244;50.828;4.718;2023-06-22T12:20:46;45.63;;;40.53;;
18239;SDS011;9244;50.828;4.718;2023-06-22T12:23:12;45.42;;;40.88;;
18239;SDS011;9244;50.828;4.718;2023-06-22T12:25:40;46.85;;;41.92;;
18239;SDS011;9244;50.828;4.718;2023-06-22T12:28:05;48.60;;;43.67;;
18239;SDS011;9244;50.828;4.718;2023-06-22T12:30:32;48.85;;;43.60;;
18239;SDS011;9244;50.828;4.718;2023-06-22T12:32:58;48.25;;;43.13;;
18239;SDS011;9244;50.828;4.718;2023-06-22T12:35:24;50.35;;;45.15;;
18239;SDS011;9244;50.828;4.718;2023-06-22T12:37:49;52.65;;;45.55;;
18239;SDS011;9244;50.828;4.718;2023-06-22T12:40:15;50.20;;;45.15;;
18239;SDS011;9244;50.828;4.718;2023-06-22T12:42:41;50.22;;;45.03;;
18239;SDS011;9244;50.828;4.718;2023-06-22T12:45:07;52.20;;;46.63;;
18239;SDS011;9244;50.828;4.718;2023-06-22T12:47:33;53.97;;;48.05;;
18239;SDS011;9244;50.828;4.718;2023-06-22T12:49:59;50.22;;;44.95;;
18239;SDS011;9244;50.828;4.718;2023-06-22T12:52:25;51.00;;;45.58;;
18239;SDS011;9244;50.828;4.718;2023-06-22T12:54:51;49.50;;;44.60;;
18239;SDS011;9244;50.828;4.718;2023-06-22T12:57:17;51.03;;;45.67;;
18239;SDS011;9244;50.828;4.718;2023-06-22T12:59:44;55.10;;;49.40;;
18239;SDS011;9244;50.828;4.718;2023-06-22T13:02:10;51.85;;;46.47;;
18239;SDS011;9244;50.828;4.718;2023-06-22T13:04:36;54.47;;;48.80;;
18239;SDS011;9244;50.828;4.718;2023-06-22T13:07:01;54.20;;;48.47;;
18239;SDS011;9244;50.828;4.718;2023-06-22T13:09:27;52.78;;;47.53;;
18239;SDS011;9244;50.828;4.718;2023-06-22T13:11:53;54.78;;;49.10;;
18239;SDS011;9244;50.828;4.718;2023-06-22T13:14:18;60.20;;;51.10;;
18239;SDS011;9244;50.828;4.718;2023-06-22T13:16:44;55.38;;;49.40;;
18239;SDS011;9244;50.828;4.718;2023-06-22T13:19:10;52.50;;;46.67;;
18239;SDS011;9244;50.828;4.718;2023-06-22T13:21:35;54.63;;;49.15;;
18239;SDS011;9244;50.828;4.718;2023-06-22T13:24:01;52.47;;;47.08;;
18239;SDS011;9244;50.828;4.718;2023-06-22T13:26:27;53.38;;;48.00;;
18239;SDS011;9244;50.828;4.718;2023-06-22T13:28:53;53.90;;;48.33;;
18239;SDS011;9244;50.828;4.718;2023-06-22T13:31:19;55.42;;;49.60;;
18239;SDS011;9244;50.828;4.718;2023-06-22T13:33:45;60.05;;;47.63;;
18239;SDS011;9244;50.828;4.718;2023-06-22T13:36:12;54.08;;;48.28;;
18239;SDS011;9244;50.828;4.718;2023-06-22T13:38:38;55.72;;;49.08;;
18239;SDS011;9244;50.828;4.718;2023-06-22T13:41:04;56.25;;;50.25;;
18239;SDS011;9244;50.828;4.718;2023-06-22T13:43:30;59.30;;;50.90;;
18239;SDS011;9244;50.828;4.718;2023-06-22T13:45:56;58.85;;;52.60;;
18239;SDS011;9244;50.828;4.718;2023-06-22T13:48:22;61.25;;;52.85;;
18239;SDS011;9244;50.828;4.718;2023-06-22T13:50:48;60.55;;;51.22;;
18239;SDS011;9244;50.828;4.718;2023-06-22T13:53:14;58.17;;;51.88;;
18239;SDS011;9244;50.828;4.718;2023-06-22T13:55:40;61.55;;;54.25;;
18239;SDS011;9244;50.828;4.718;2023-06-22T13:58:06;61.72;;;55.15;;
18239;SDS011;9244;50.828;4.718;2023-06-22T14:00:31;63.67;;;54.28;;
18239;SDS011;9244;50.828;4.718;2023-06-22T14:02:57;60.40;;;52.47;;
18239;SDS011;9244;50.828;4.718;2023-06-22T14:05:23;67.53;;;55.05;;
18239;SDS011;9244;50.828;4.718;2023-06-22T14:07:48;56.95;;;50.85;;
18239;SDS011;9244;50.828;4.718;2023-06-22T14:10:14;56.20;;;50.28;;
18239;SDS011;9244;50.828;4.718;2023-06-22T14:12:40;59.72;;;53.45;;
18239;SDS011;9244;50.828;4.718;2023-06-22T14:15:06;58.20;;;52.10;;
18239;SDS011;9244;50.828;4.718;2023-06-22T14:17:31;57.92;;;51.97;;
18239;SDS011;9244;50.828;4.718;2023-06-22T14:19:57;59.80;;;50.88;;
18239;SDS011;9244;50.828;4.718;2023-06-22T14:22:23;56.72;;;50.63;;
18239;SDS011;9244;50.828;4.718;2023-06-22T14:24:49;54.95;;;49.30;;
18239;SDS011;9244;50.828;4.718;2023-06-22T14:27:15;53.15;;;47.88;;
18239;SDS011;9244;50.828;4.718;2023-06-22T14:29:41;50.40;;;45.30;;
18239;SDS011;9244;50.828;4.718;2023-06-22T14:32:07;50.75;;;45.75;;
18239;SDS011;9244;50.828;4.718;2023-06-22T14:34:33;49.92;;;44.78;;
18239;SDS011;9244;50.828;4.718;2023-06-22T14:37:01;49.35;;;44.25;;
18239;SDS011;9244;50.828;4.718;2023-06-22T14:39:27;50.25;;;45.28;;
18239;SDS011;9244;50.828;4.718;2023-06-22T14:41:53;49.95;;;45.03;;
18239;SDS011;9244;50.828;4.718;2023-06-22T14:44:18;48.33;;;43.38;;
18239;SDS011;9244;50.828;4.718;2023-06-22T14:46:44;49.28;;;44.28;;